sensor_id;sensor_type;location;lat;lon;timestamp;pressure;altitude;pressure_sealevel;temperature;humidity
6150;BME280;3106;42.670;23.318;2023-02-18T00:01:17;95163.72;;;5.53;64.73
6150;BME280;3106;42.670;23.318;2023-02-18T00:03:44;95167.94;;;5.54;65.31
6150;BME280;3106;42.670;23.318;2023-02-18T00:06:12;95154.75;;;5.35;67.40
6150;BME280;3106;42.670;23.318;2023-02-18T00:08:40;95156.53;;;5.40;67.64
6150;BME280;3106;42.670;23.318;2023-02-18T00:11:07;95150.44;;;5.39;67.76
6150;BME280;3106;42.670;23.318;2023-02-18T00:13:34;95143.94;;;5.32;67.62
6150;BME280;3106;42.670;23.318;2023-02-18T00:16:03;95146.47;;;5.23;67.77
6150;BME280;3106;42.670;23.318;2023-02-18T00:18:31;95157.94;;;5.19;68.18
6150;BME280;3106;42.670;23.318;2023-02-18T00:20:58;95144.00;;;5.13;67.68
6150;BME280;3106;42.670;23.318;2023-02-18T00:23:25;95140.91;;;5.06;68.58
6150;BME280;3106;42.670;23.318;2023-02-18T00:25:58;95139.44;;;5.00;69.38
6150;BME280;3106;42.670;23.318;2023-02-18T00:28:25;95132.38;;;4.96;69.80
6150;BME280;3106;42.670;23.318;2023-02-18T00:30:52;95124.91;;;4.98;69.17
6150;BME280;3106;42.670;23.318;2023-02-18T00:33:20;95122.44;;;5.01;67.60
6150;BME280;3106;42.670;23.318;2023-02-18T00:35:47;95125.09;;;5.01;68.94
6150;BME280;3106;42.670;23.318;2023-02-18T00:38:14;95110.47;;;4.90;69.15
6150;BME280;3106;42.670;23.318;2023-02-18T00:40:41;95092.66;;;4.77;69.99
6150;BME280;3106;42.670;23.318;2023-02-18T00:43:09;95107.59;;;4.87;69.44
6150;BME280;3106;42.670;23.318;2023-02-18T00:45:36;95101.22;;;4.88;70.43
6150;BME280;3106;42.670;23.318;2023-02-18T00:48:03;95109.06;;;4.79;70.72
6150;BME280;3106;42.670;23.318;2023-02-18T00:50:31;95118.69;;;4.70;71.65
6150;BME280;3106;42.670;23.318;2023-02-18T00:52:58;95113.91;;;4.72;71.91
6150;BME280;3106;42.670;23.318;2023-02-18T00:55:25;95118.44;;;4.72;71.97
6150;BME280;3106;42.670;23.318;2023-02-18T00:57:51;95105.47;;;4.70;72.13
6150;BME280;3106;42.670;23.318;2023-02-18T01:00:18;95111.72;;;4.61;72.39
6150;BME280;3106;42.670;23.318;2023-02-18T01:02:45;95110.34;;;4.63;72.61
6150;BME280;3106;42.670;23.318;2023-02-18T01:05:12;95101.31;;;4.64;72.39
6150;BME280;3106;42.670;23.318;2023-02-18T01:07:40;95106.53;;;4.69;72.64
6150;BME280;3106;42.670;23.318;2023-02-18T01:10:07;95108.78;;;4.62;72.44
6150;BME280;3106;42.670;23.318;2023-02-18T01:12:34;95050.47;;;4.31;72.65
6150;BME280;3106;42.670;23.318;2023-02-18T01:15:01;95110.06;;;4.65;72.92
6150;BME280;3106;42.670;23.318;2023-02-18T01:17:28;95115.88;;;4.67;73.02
6150;BME280;3106;42.670;23.318;2023-02-18T01:19:55;95100.91;;;4.57;73.01
6150;BME280;3106;42.670;23.318;2023-02-18T01:22:21;95098.84;;;4.54;72.97
6150;BME280;3106;42.670;23.318;2023-02-18T01:24:49;95096.41;;;4.58;73.43
6150;BME280;3106;42.670;23.318;2023-02-18T01:27:16;95111.56;;;4.52;73.52
6150;BME280;3106;42.670;23.318;2023-02-18T01:29:43;95105.47;;;4.52;73.56
6150;BME280;3106;42.670;23.318;2023-02-18T01:32:10;95100.00;;;4.48;74.49
6150;BME280;3106;42.670;23.318;2023-02-18T01:34:37;95104.78;;;4.46;74.28
6150;BME280;3106;42.670;23.318;2023-02-18T01:37:03;95092.91;;;4.44;74.05
6150;BME280;3106;42.670;23.318;2023-02-18T01:39:30;95100.25;;;4.47;74.24
6150;BME280;3106;42.670;23.318;2023-02-18T01:41:59;95108.84;;;4.39;74.76
6150;BME280;3106;42.670;23.318;2023-02-18T01:44:27;95104.00;;;4.46;74.23
6150;BME280;3106;42.670;23.318;2023-02-18T01:46:55;95104.47;;;4.48;73.88
6150;BME280;3106;42.670;23.318;2023-02-18T01:49:26;95110.34;;;4.45;74.26
6150;BME280;3106;42.670;23.318;2023-02-18T01:51:58;95113.56;;;4.42;74.32
6150;BME280;3106;42.670;23.318;2023-02-18T01:54:28;95117.53;;;4.44;74.15
6150;BME280;3106;42.670;23.318;2023-02-18T01:56:58;95123.66;;;4.40;74.02
6150;BME280;3106;42.670;23.318;2023-02-18T01:59:30;95122.16;;;4.34;75.17
6150;BME280;3106;42.670;23.318;2023-02-18T02:01:58;95121.94;;;4.31;75.06
6150;BME280;3106;42.670;23.318;2023-02-18T02:04:26;95118.44;;;4.35;75.39
6150;BME280;3106;42.670;23.318;2023-02-18T02:06:53;95117.53;;;4.26;76.31
6150;BME280;3106;42.670;23.318;2023-02-18T02:09:21;95113.31;;;4.25;75.74
6150;BME280;3106;42.670;23.318;2023-02-18T02:12:02;95114.41;;;4.19;76.51
6150;BME280;3106;42.670;23.318;2023-02-18T02:14:46;95112.91;;;4.13;77.06
6150;BME280;3106;42.670;23.318;2023-02-18T02:17:24;95105.28;;;4.12;77.13
6150;BME280;3106;42.670;23.318;2023-02-18T02:29:15;95108.63;;;4.17;75.74
6150;BME280;3106;42.670;23.318;2023-02-18T02:32:26;95100.84;;;4.26;75.47
6150;BME280;3106;42.670;23.318;2023-02-18T02:35:01;95105.56;;;4.29;75.07
6150;BME280;3106;42.670;23.318;2023-02-18T02:37:34;95096.84;;;4.28;74.96
6150;BME280;3106;42.670;23.318;2023-02-18T02:40:12;95099.69;;;4.13;75.84
6150;BME280;3106;42.670;23.318;2023-02-18T02:42:46;95057.59;;;4.17;75.85
6150;BME280;3106;42.670;23.318;2023-02-18T02:45:20;95079.41;;;4.27;75.76
6150;BME280;3106;42.670;23.318;2023-02-18T02:47:55;95073.72;;;4.34;74.97
6150;BME280;3106;42.670;23.318;2023-02-18T02:50:31;95079.09;;;4.29;75.58
6150;BME280;3106;42.670;23.318;2023-02-18T02:53:05;95071.16;;;4.29;75.68
6150;BME280;3106;42.670;23.318;2023-02-18T02:55:37;95076.88;;;4.36;75.39
6150;BME280;3106;42.670;23.318;2023-02-18T02:58:04;95087.69;;;4.39;75.09
6150;BME280;3106;42.670;23.318;2023-02-18T03:00:39;95096.47;;;4.35;75.15
6150;BME280;3106;42.670;23.318;2023-02-18T03:03:24;95091.63;;;4.42;74.75
6150;BME280;3106;42.670;23.318;2023-02-18T03:06:10;95109.34;;;4.41;73.85
6150;BME280;3106;42.670;23.318;2023-02-18T03:08:49;95103.41;;;4.49;73.63
6150;BME280;3106;42.670;23.318;2023-02-18T03:11:19;95103.72;;;4.47;72.81
6150;BME280;3106;42.670;23.318;2023-02-18T03:13:56;95107.72;;;4.45;73.61
6150;BME280;3106;42.670;23.318;2023-02-18T03:16:33;95093.56;;;4.36;73.10
6150;BME280;3106;42.670;23.318;2023-02-18T03:19:06;95089.97;;;4.27;73.54
6150;BME280;3106;42.670;23.318;2023-02-18T03:21:37;95089.59;;;4.15;74.15
6150;BME280;3106;42.670;23.318;2023-02-18T03:24:11;95108.78;;;4.26;74.01
6150;BME280;3106;42.670;23.318;2023-02-18T03:26:42;95119.50;;;4.16;75.25
6150;BME280;3106;42.670;23.318;2023-02-18T03:29:11;95136.84;;;4.03;75.60
6150;BME280;3106;42.670;23.318;2023-02-18T03:31:42;95135.94;;;4.13;75.19
6150;BME280;3106;42.670;23.318;2023-02-18T03:34:14;95126.94;;;4.14;76.09
6150;BME280;3106;42.670;23.318;2023-02-18T03:36:44;95140.75;;;4.11;76.14
6150;BME280;3106;42.670;23.318;2023-02-18T03:39:14;95142.31;;;4.12;75.67
6150;BME280;3106;42.670;23.318;2023-02-18T03:41:42;95140.44;;;4.12;75.07
6150;BME280;3106;42.670;23.318;2023-02-18T03:44:10;95151.31;;;4.11;75.26
6150;BME280;3106;42.670;23.318;2023-02-18T03:46:39;95149.59;;;4.01;75.68
6150;BME280;3106;42.670;23.318;2023-02-18T03:49:08;95149.66;;;3.96;75.78
6150;BME280;3106;42.670;23.318;2023-02-18T03:51:35;95165.59;;;3.91;76.54
6150;BME280;3106;42.670;23.318;2023-02-18T03:54:04;95167.16;;;3.69;77.00
6150;BME280;3106;42.670;23.318;2023-02-18T03:56:31;95148.81;;;3.77;77.74
6150;BME280;3106;42.670;23.318;2023-02-18T03:58:57;95149.03;;;3.81;77.41
6150;BME280;3106;42.670;23.318;2023-02-18T04:01:24;95156.28;;;3.70;78.02
6150;BME280;3106;42.670;23.318;2023-02-18T04:03:51;95152.88;;;3.70;77.50
6150;BME280;3106;42.670;23.318;2023-02-18T04:06:19;95138.34;;;3.67;78.14
6150;BME280;3106;42.670;23.318;2023-02-18T04:08:46;95150.00;;;3.66;78.54
6150;BME280;3106;42.670;23.318;2023-02-18T04:11:15;95124.38;;;3.62;78.37
6150;BME280;3106;42.670;23.318;2023-02-18T04:13:41;95136.81;;;3.61;79.05
6150;BME280;3106;42.670;23.318;2023-02-18T04:16:08;95127.31;;;3.60;78.44
6150;BME280;3106;42.670;23.318;2023-02-18T04:18:35;95131.03;;;3.59;77.90
6150;BME280;3106;42.670;23.318;2023-02-18T04:21:02;95128.09;;;3.61;78.32
6150;BME280;3106;42.670;23.318;2023-02-18T04:23:29;95120.72;;;3.58;78.55
6150;BME280;3106;42.670;23.318;2023-02-18T04:25:56;95119.66;;;3.59;78.81
6150;BME280;3106;42.670;23.318;2023-02-18T04:28:24;95109.31;;;3.62;78.82
6150;BME280;3106;42.670;23.318;2023-02-18T04:30:51;95114.88;;;3.61;79.19
6150;BME280;3106;42.670;23.318;2023-02-18T04:33:17;95102.53;;;3.56;78.74
6150;BME280;3106;42.670;23.318;2023-02-18T04:35:44;95105.03;;;3.66;79.06
6150;BME280;3106;42.670;23.318;2023-02-18T04:38:13;95110.50;;;3.75;78.85
6150;BME280;3106;42.670;23.318;2023-02-18T04:40:40;95111.78;;;3.77;77.90
6150;BME280;3106;42.670;23.318;2023-02-18T04:43:07;95114.16;;;3.79;77.93
6150;BME280;3106;42.670;23.318;2023-02-18T04:45:35;95114.94;;;3.79;77.65
6150;BME280;3106;42.670;23.318;2023-02-18T04:48:02;95124.50;;;3.75;77.89
6150;BME280;3106;42.670;23.318;2023-02-18T04:50:29;95122.81;;;3.84;77.44
6150;BME280;3106;42.670;23.318;2023-02-18T04:52:56;95119.94;;;3.81;78.18
6150;BME280;3106;42.670;23.318;2023-02-18T04:55:23;95113.25;;;3.88;77.91
6150;BME280;3106;42.670;23.318;2023-02-18T04:57:50;95133.91;;;3.86;77.56
6150;BME280;3106;42.670;23.318;2023-02-18T05:00:19;95136.69;;;3.95;76.74
6150;BME280;3106;42.670;23.318;2023-02-18T05:02:47;95128.41;;;4.01;77.26
6150;BME280;3106;42.670;23.318;2023-02-18T05:05:15;95138.00;;;3.97;76.26
6150;BME280;3106;42.670;23.318;2023-02-18T05:07:42;95140.88;;;3.77;77.81
6150;BME280;3106;42.670;23.318;2023-02-18T05:10:09;95155.78;;;3.68;77.90
6150;BME280;3106;42.670;23.318;2023-02-18T05:12:37;95141.56;;;3.64;78.30
6150;BME280;3106;42.670;23.318;2023-02-18T05:15:05;95146.34;;;3.62;78.31
6150;BME280;3106;42.670;23.318;2023-02-18T05:17:32;95135.19;;;3.65;78.54
6150;BME280;3106;42.670;23.318;2023-02-18T05:20:01;95138.91;;;3.64;78.67
6150;BME280;3106;42.670;23.318;2023-02-18T05:22:28;95141.03;;;3.62;79.59
6150;BME280;3106;42.670;23.318;2023-02-18T05:24:54;95141.78;;;3.68;79.57
6150;BME280;3106;42.670;23.318;2023-02-18T05:27:21;95117.69;;;3.69;79.64
6150;BME280;3106;42.670;23.318;2023-02-18T05:29:48;95118.94;;;3.77;78.68
6150;BME280;3106;42.670;23.318;2023-02-18T05:32:15;95117.94;;;3.73;79.25
6150;BME280;3106;42.670;23.318;2023-02-18T05:34:42;95124.41;;;3.85;78.37
6150;BME280;3106;42.670;23.318;2023-02-18T05:37:10;95114.50;;;3.72;78.78
6150;BME280;3106;42.670;23.318;2023-02-18T05:39:38;95119.66;;;3.82;78.43
6150;BME280;3106;42.670;23.318;2023-02-18T05:42:06;95114.81;;;3.89;77.56
6150;BME280;3106;42.670;23.318;2023-02-18T05:44:32;95113.75;;;3.90;77.84
6150;BME280;3106;42.670;23.318;2023-02-18T05:47:00;95122.13;;;3.97;77.44
6150;BME280;3106;42.670;23.318;2023-02-18T05:49:28;95085.97;;;3.69;77.38
6150;BME280;3106;42.670;23.318;2023-02-18T05:51:56;95125.00;;;4.19;75.61
6150;BME280;3106;42.670;23.318;2023-02-18T05:54:26;95132.59;;;4.26;75.57
6150;BME280;3106;42.670;23.318;2023-02-18T05:56:53;95150.38;;;4.43;75.17
6150;BME280;3106;42.670;23.318;2023-02-18T05:59:20;95154.84;;;4.43;75.39
6150;BME280;3106;42.670;23.318;2023-02-18T06:01:48;95139.03;;;4.38;76.18
6150;BME280;3106;42.670;23.318;2023-02-18T06:04:15;95160.72;;;4.58;75.38
6150;BME280;3106;42.670;23.318;2023-02-18T06:06:43;95164.69;;;4.61;75.01
6150;BME280;3106;42.670;23.318;2023-02-18T06:09:09;95140.91;;;4.74;74.29
6150;BME280;3106;42.670;23.318;2023-02-18T06:11:38;95139.94;;;4.84;74.04
6150;BME280;3106;42.670;23.318;2023-02-18T06:14:05;95133.00;;;4.88;72.99
6150;BME280;3106;42.670;23.318;2023-02-18T06:16:32;95094.53;;;4.58;72.52
6150;BME280;3106;42.670;23.318;2023-02-18T06:18:59;95143.38;;;5.03;72.44
6150;BME280;3106;42.670;23.318;2023-02-18T06:21:26;95142.22;;;5.09;72.58
6150;BME280;3106;42.670;23.318;2023-02-18T06:23:53;95145.94;;;5.08;72.77
6150;BME280;3106;42.670;23.318;2023-02-18T06:26:19;95145.94;;;5.08;72.29
6150;BME280;3106;42.670;23.318;2023-02-18T06:28:48;95140.28;;;5.14;71.72
6150;BME280;3106;42.670;23.318;2023-02-18T06:31:15;95139.06;;;5.07;72.19
6150;BME280;3106;42.670;23.318;2023-02-18T06:33:41;95130.44;;;5.15;71.77
6150;BME280;3106;42.670;23.318;2023-02-18T06:36:10;95131.84;;;5.26;71.45
6150;BME280;3106;42.670;23.318;2023-02-18T06:38:39;95123.03;;;5.30;71.66
6150;BME280;3106;42.670;23.318;2023-02-18T06:41:09;95119.19;;;5.36;70.86
6150;BME280;3106;42.670;23.318;2023-02-18T06:43:36;95132.09;;;5.43;71.48
6150;BME280;3106;42.670;23.318;2023-02-18T06:46:05;95125.50;;;5.54;70.20
6150;BME280;3106;42.670;23.318;2023-02-18T06:48:32;95133.69;;;5.71;68.78
6150;BME280;3106;42.670;23.318;2023-02-18T06:50:59;95135.50;;;5.89;68.15
6150;BME280;3106;42.670;23.318;2023-02-18T06:53:25;95130.97;;;6.02;67.52
6150;BME280;3106;42.670;23.318;2023-02-18T06:55:52;95131.25;;;6.14;67.04
6150;BME280;3106;42.670;23.318;2023-02-18T06:58:19;95135.38;;;6.20;66.67
6150;BME280;3106;42.670;23.318;2023-02-18T07:00:47;95135.09;;;6.22;66.64
6150;BME280;3106;42.670;23.318;2023-02-18T07:03:16;95095.59;;;5.93;66.97
6150;BME280;3106;42.670;23.318;2023-02-18T07:05:42;95132.59;;;6.39;66.00
6150;BME280;3106;42.670;23.318;2023-02-18T07:08:09;95126.94;;;6.54;66.89
6150;BME280;3106;42.670;23.318;2023-02-18T07:10:36;95132.00;;;6.77;64.58
6150;BME280;3106;42.670;23.318;2023-02-18T07:13:03;95134.31;;;6.92;63.46
6150;BME280;3106;42.670;23.318;2023-02-18T07:15:30;95126.09;;;7.02;62.85
6150;BME280;3106;42.670;23.318;2023-02-18T07:17:57;95118.72;;;7.21;61.26
6150;BME280;3106;42.670;23.318;2023-02-18T07:20:25;95116.91;;;7.30;61.71
6150;BME280;3106;42.670;23.318;2023-02-18T07:22:53;95117.25;;;7.37;60.77
6150;BME280;3106;42.670;23.318;2023-02-18T07:25:20;95117.97;;;7.51;59.75
6150;BME280;3106;42.670;23.318;2023-02-18T07:27:47;95113.59;;;7.55;59.19
6150;BME280;3106;42.670;23.318;2023-02-18T07:30:14;95115.50;;;7.63;58.75
6150;BME280;3106;42.670;23.318;2023-02-18T07:32:41;95118.03;;;7.68;59.54
6150;BME280;3106;42.670;23.318;2023-02-18T07:35:10;95124.03;;;7.73;58.98
6150;BME280;3106;42.670;23.318;2023-02-18T07:37:43;95126.69;;;7.82;58.32
6150;BME280;3106;42.670;23.318;2023-02-18T07:40:12;95139.91;;;7.87;58.59
6150;BME280;3106;42.670;23.318;2023-02-18T07:42:39;95140.97;;;7.86;58.44
6150;BME280;3106;42.670;23.318;2023-02-18T07:45:07;95153.97;;;7.87;58.88
6150;BME280;3106;42.670;23.318;2023-02-18T07:47:34;95153.03;;;7.83;59.23
6150;BME280;3106;42.670;23.318;2023-02-18T07:50:01;95152.53;;;7.81;59.50
6150;BME280;3106;42.670;23.318;2023-02-18T07:52:28;95151.31;;;7.87;59.51
6150;BME280;3106;42.670;23.318;2023-02-18T07:54:56;95159.69;;;8.03;59.30
6150;BME280;3106;42.670;23.318;2023-02-18T07:57:23;95154.59;;;8.23;58.28
6150;BME280;3106;42.670;23.318;2023-02-18T07:59:50;95153.72;;;8.45;57.66
6150;BME280;3106;42.670;23.318;2023-02-18T08:02:19;95150.78;;;8.63;57.43
6150;BME280;3106;42.670;23.318;2023-02-18T08:04:47;95129.16;;;8.73;55.87
6150;BME280;3106;42.670;23.318;2023-02-18T08:07:15;95148.94;;;8.98;55.06
6150;BME280;3106;42.670;23.318;2023-02-18T08:09:43;95127.75;;;8.93;54.32
6150;BME280;3106;42.670;23.318;2023-02-18T08:12:11;95155.06;;;9.06;54.35
6150;BME280;3106;42.670;23.318;2023-02-18T08:14:38;95148.59;;;9.33;53.49
6150;BME280;3106;42.670;23.318;2023-02-18T08:17:07;95139.78;;;9.58;52.66
6150;BME280;3106;42.670;23.318;2023-02-18T08:19:33;95141.56;;;9.83;51.98
6150;BME280;3106;42.670;23.318;2023-02-18T08:22:01;95138.28;;;9.86;51.05
6150;BME280;3106;42.670;23.318;2023-02-18T08:24:28;95131.38;;;10.22;50.79
6150;BME280;3106;42.670;23.318;2023-02-18T08:26:55;95129.56;;;10.43;49.63
6150;BME280;3106;42.670;23.318;2023-02-18T08:29:23;95123.56;;;10.46;49.46
6150;BME280;3106;42.670;23.318;2023-02-18T08:31:50;95124.56;;;10.62;48.80
6150;BME280;3106;42.670;23.318;2023-02-18T08:34:18;95125.00;;;10.64;48.91
6150;BME280;3106;42.670;23.318;2023-02-18T08:36:45;95121.03;;;10.70;48.11
6150;BME280;3106;42.670;23.318;2023-02-18T08:39:12;95119.09;;;10.79;48.33
6150;BME280;3106;42.670;23.318;2023-02-18T08:41:39;95120.97;;;10.99;47.43
6150;BME280;3106;42.670;23.318;2023-02-18T08:44:06;95116.94;;;10.93;47.13
6150;BME280;3106;42.670;23.318;2023-02-18T08:46:34;95122.88;;;10.78;47.46
6150;BME280;3106;42.670;23.318;2023-02-18T08:49:01;95117.09;;;10.76;47.53
6150;BME280;3106;42.670;23.318;2023-02-18T08:51:28;95113.41;;;10.80;47.17
6150;BME280;3106;42.670;23.318;2023-02-18T08:53:55;95130.38;;;10.84;47.87
6150;BME280;3106;42.670;23.318;2023-02-18T08:56:22;95130.75;;;10.74;47.40
6150;BME280;3106;42.670;23.318;2023-02-18T08:58:49;95131.16;;;10.64;47.94
6150;BME280;3106;42.670;23.318;2023-02-18T09:01:16;95120.13;;;10.37;48.77
6150;BME280;3106;42.670;23.318;2023-02-18T09:03:44;95128.25;;;10.49;48.75
6150;BME280;3106;42.670;23.318;2023-02-18T09:06:12;95112.34;;;10.52;48.72
6150;BME280;3106;42.670;23.318;2023-02-18T09:08:39;95131.41;;;10.71;48.62
6150;BME280;3106;42.670;23.318;2023-02-18T09:11:06;95114.56;;;10.71;48.25
6150;BME280;3106;42.670;23.318;2023-02-18T09:13:35;95131.94;;;11.06;47.85
6150;BME280;3106;42.670;23.318;2023-02-18T09:16:04;95133.31;;;11.12;47.78
6150;BME280;3106;42.670;23.318;2023-02-18T09:18:31;95126.06;;;11.12;48.24
6150;BME280;3106;42.670;23.318;2023-02-18T09:21:02;95129.38;;;11.30;47.88
6150;BME280;3106;42.670;23.318;2023-02-18T09:23:30;95131.53;;;11.36;47.02
6150;BME280;3106;42.670;23.318;2023-02-18T09:25:58;95131.78;;;11.43;46.32
6150;BME280;3106;42.670;23.318;2023-02-18T09:28:25;95128.22;;;11.51;46.02
6150;BME280;3106;42.670;23.318;2023-02-18T09:30:52;95120.06;;;11.68;45.56
6150;BME280;3106;42.670;23.318;2023-02-18T09:33:19;95092.03;;;11.78;45.90
6150;BME280;3106;42.670;23.318;2023-02-18T09:35:46;95111.53;;;12.22;44.59
6150;BME280;3106;42.670;23.318;2023-02-18T09:38:16;95104.38;;;12.38;44.47
6150;BME280;3106;42.670;23.318;2023-02-18T09:40:47;95107.16;;;12.54;43.45
6150;BME280;3106;42.670;23.318;2023-02-18T09:43:22;95106.69;;;12.76;42.88
6150;BME280;3106;42.670;23.318;2023-02-18T09:45:52;95100.50;;;12.99;43.07
6150;BME280;3106;42.670;23.318;2023-02-18T09:48:25;95102.19;;;13.31;42.73
6150;BME280;3106;42.670;23.318;2023-02-18T09:50:53;95104.56;;;13.48;41.31
6150;BME280;3106;42.670;23.318;2023-02-18T09:53:22;95105.22;;;13.72;40.98
6150;BME280;3106;42.670;23.318;2023-02-18T09:55:50;95102.47;;;13.69;40.78
6150;BME280;3106;42.670;23.318;2023-02-18T09:58:20;95101.38;;;13.58;41.18
6150;BME280;3106;42.670;23.318;2023-02-18T10:00:48;95096.47;;;13.33;41.48
6150;BME280;3106;42.670;23.318;2023-02-18T10:03:19;95091.91;;;13.21;42.32
6150;BME280;3106;42.670;23.318;2023-02-18T10:05:55;95091.59;;;13.23;41.76
6150;BME280;3106;42.670;23.318;2023-02-18T10:08:27;95079.66;;;13.36;42.01
6150;BME280;3106;42.670;23.318;2023-02-18T10:10:54;95090.59;;;13.70;40.92
6150;BME280;3106;42.670;23.318;2023-02-18T10:13:23;95077.59;;;13.72;40.37
6150;BME280;3106;42.670;23.318;2023-02-18T10:15:51;95081.06;;;14.03;40.25
6150;BME280;3106;42.670;23.318;2023-02-18T10:18:25;95069.09;;;14.32;39.65
6150;BME280;3106;42.670;23.318;2023-02-18T10:21:00;95080.19;;;14.46;38.92
6150;BME280;3106;42.670;23.318;2023-02-18T10:23:33;95083.63;;;14.62;38.71
6150;BME280;3106;42.670;23.318;2023-02-18T10:26:04;95088.47;;;15.06;37.96
6150;BME280;3106;42.670;23.318;2023-02-18T10:28:34;95079.47;;;15.17;37.29
6150;BME280;3106;42.670;23.318;2023-02-18T10:31:04;95072.94;;;15.18;37.06
6150;BME280;3106;42.670;23.318;2023-02-18T10:33:38;95073.75;;;15.38;36.97
6150;BME280;3106;42.670;23.318;2023-02-18T10:36:20;95066.34;;;15.16;37.30
6150;BME280;3106;42.670;23.318;2023-02-18T10:41:45;95066.63;;;15.49;37.46
6150;BME280;3106;42.670;23.318;2023-02-18T10:44:20;95044.00;;;15.53;37.19
6150;BME280;3106;42.670;23.318;2023-02-18T10:46:59;95050.59;;;15.78;36.92
6150;BME280;3106;42.670;23.318;2023-02-18T10:49:44;95050.59;;;16.01;36.48
6150;BME280;3106;42.670;23.318;2023-02-18T10:52:17;95044.53;;;16.30;35.98
6150;BME280;3106;42.670;23.318;2023-02-18T10:54:53;95048.44;;;16.55;35.49
6150;BME280;3106;42.670;23.318;2023-02-18T10:57:24;95044.41;;;17.00;35.19
6150;BME280;3106;42.670;23.318;2023-02-18T10:59:58;95039.06;;;17.04;34.60
6150;BME280;3106;42.670;23.318;2023-02-18T11:02:28;95013.81;;;16.93;34.23
6150;BME280;3106;42.670;23.318;2023-02-18T11:04:57;95016.94;;;16.95;33.83
6150;BME280;3106;42.670;23.318;2023-02-18T11:07:30;95018.16;;;16.68;34.61
6150;BME280;3106;42.670;23.318;2023-02-18T11:10:01;95016.13;;;16.62;35.11
6150;BME280;3106;42.670;23.318;2023-02-18T11:12:44;95014.75;;;16.74;34.10
6150;BME280;3106;42.670;23.318;2023-02-18T11:15:21;95016.72;;;17.07;33.65
6150;BME280;3106;42.670;23.318;2023-02-18T11:17:50;95000.72;;;17.24;33.33
6150;BME280;3106;42.670;23.318;2023-02-18T11:20:24;95003.09;;;17.29;32.29
6150;BME280;3106;42.670;23.318;2023-02-18T11:22:56;94991.47;;;17.29;33.00
6150;BME280;3106;42.670;23.318;2023-02-18T11:25:27;94985.66;;;17.27;33.24
6150;BME280;3106;42.670;23.318;2023-02-18T11:27:59;94985.31;;;17.28;32.75
6150;BME280;3106;42.670;23.318;2023-02-18T11:30:31;94987.53;;;16.31;31.83
6150;BME280;3106;42.670;23.318;2023-02-18T11:33:00;94970.84;;;16.00;32.24
6150;BME280;3106;42.670;23.318;2023-02-18T11:35:31;94959.13;;;15.89;32.79
6150;BME280;3106;42.670;23.318;2023-02-18T11:38:01;94957.03;;;15.79;33.05
6150;BME280;3106;42.670;23.318;2023-02-18T11:40:32;94950.47;;;16.02;32.65
6150;BME280;3106;42.670;23.318;2023-02-18T11:43:04;94937.59;;;16.18;32.47
6150;BME280;3106;42.670;23.318;2023-02-18T11:45:33;94938.28;;;16.38;32.18
6150;BME280;3106;42.670;23.318;2023-02-18T11:48:06;94939.81;;;16.35;31.38
6150;BME280;3106;42.670;23.318;2023-02-18T11:50:34;94932.16;;;16.70;31.22
6150;BME280;3106;42.670;23.318;2023-02-18T11:53:31;94926.75;;;17.03;30.19
6150;BME280;3106;42.670;23.318;2023-02-18T11:56:01;94924.19;;;17.17;29.91
6150;BME280;3106;42.670;23.318;2023-02-18T11:58:35;94917.84;;;17.35;30.00
6150;BME280;3106;42.670;23.318;2023-02-18T12:01:05;94919.47;;;17.43;29.52
6150;BME280;3106;42.670;23.318;2023-02-18T12:03:42;94920.72;;;17.53;29.36
6150;BME280;3106;42.670;23.318;2023-02-18T12:06:14;94902.63;;;17.64;29.21
6150;BME280;3106;42.670;23.318;2023-02-18T12:08:47;94902.69;;;17.67;29.14
6150;BME280;3106;42.670;23.318;2023-02-18T12:11:22;94899.53;;;17.58;29.40
6150;BME280;3106;42.670;23.318;2023-02-18T12:13:54;94913.03;;;17.58;29.41
6150;BME280;3106;42.670;23.318;2023-02-18T12:16:31;94894.03;;;17.48;29.51
6150;BME280;3106;42.670;23.318;2023-02-18T12:19:15;94902.16;;;17.51;29.85
6150;BME280;3106;42.670;23.318;2023-02-18T12:21:54;94894.59;;;17.31;29.95
6150;BME280;3106;42.670;23.318;2023-02-18T12:24:38;94906.03;;;17.14;29.93
6150;BME280;3106;42.670;23.318;2023-02-18T12:27:15;94898.31;;;17.16;30.10
6150;BME280;3106;42.670;23.318;2023-02-18T12:30:02;94899.81;;;17.10;30.35
6150;BME280;3106;42.670;23.318;2023-02-18T12:32:42;94894.13;;;17.18;30.46
6150;BME280;3106;42.670;23.318;2023-02-18T12:35:27;94886.63;;;17.41;30.31
6150;BME280;3106;42.670;23.318;2023-02-18T12:38:11;94882.91;;;17.60;30.23
6150;BME280;3106;42.670;23.318;2023-02-18T12:40:56;94882.50;;;17.58;30.71
6150;BME280;3106;42.670;23.318;2023-02-18T12:43:36;94870.03;;;17.43;30.88
6150;BME280;3106;42.670;23.318;2023-02-18T12:46:20;94865.78;;;17.42;30.92
6150;BME280;3106;42.670;23.318;2023-02-18T12:51:52;94854.78;;;17.24;30.36
6150;BME280;3106;42.670;23.318;2023-02-18T12:54:36;94861.88;;;17.36;30.42
6150;BME280;3106;42.670;23.318;2023-02-18T12:57:27;94860.03;;;17.47;30.88
6150;BME280;3106;42.670;23.318;2023-02-18T13:00:15;94866.34;;;17.65;30.67
6150;BME280;3106;42.670;23.318;2023-02-18T13:03:08;94850.81;;;17.55;30.79
6150;BME280;3106;42.670;23.318;2023-02-18T13:05:43;94862.59;;;17.80;30.35
6150;BME280;3106;42.670;23.318;2023-02-18T13:08:25;94861.91;;;17.97;29.97
6150;BME280;3106;42.670;23.318;2023-02-18T13:11:07;94871.25;;;18.06;29.68
6150;BME280;3106;42.670;23.318;2023-02-18T13:13:41;94876.28;;;18.04;29.86
6150;BME280;3106;42.670;23.318;2023-02-18T13:16:16;94876.69;;;18.06;29.84
6150;BME280;3106;42.670;23.318;2023-02-18T13:18:52;94877.47;;;18.10;30.04
6150;BME280;3106;42.670;23.318;2023-02-18T13:21:24;94869.75;;;18.09;29.95
6150;BME280;3106;42.670;23.318;2023-02-18T13:23:55;94863.53;;;18.05;30.07
6150;BME280;3106;42.670;23.318;2023-02-18T13:26:23;94862.72;;;17.97;30.46
6150;BME280;3106;42.670;23.318;2023-02-18T13:29:02;94863.75;;;17.82;30.46
6150;BME280;3106;42.670;23.318;2023-02-18T13:31:43;94870.19;;;17.64;31.02
6150;BME280;3106;42.670;23.318;2023-02-18T13:34:18;94854.63;;;17.47;30.95
6150;BME280;3106;42.670;23.318;2023-02-18T13:36:56;94864.44;;;17.25;32.05
6150;BME280;3106;42.670;23.318;2023-02-18T13:39:28;94859.84;;;16.89;34.00
6150;BME280;3106;42.670;23.318;2023-02-18T13:42:11;94863.53;;;16.74;34.65
6150;BME280;3106;42.670;23.318;2023-02-18T13:47:48;94858.41;;;16.33;35.68
6150;BME280;3106;42.670;23.318;2023-02-18T13:50:24;94858.41;;;16.33;35.56
6150;BME280;3106;42.670;23.318;2023-02-18T13:52:57;94852.47;;;16.21;36.16